Airport View

Enter AWOS ICAO identifier for current METAR.

ex. KFNL

KGNT 200250Z AUTO 00000KT 10SM BKN100 OVC120 07/00 A3018 RMK AO2 T00720000

20 Mar 2019 02:54

Frequency: 118.3

Phone: 505-287-9890

Other Area AWOS: KGUP - KAEG - KE80 - KABQ

TAF KGUP 192341Z 2000/2024 03008KT P6SM VCSH BKN070 FM200400 11006KT P6SM SCT070 FM202100 13009KT P6SM VCSH BKN060